Elkland, Missouri
Current Conditions -  °F | °C
As of 10:52 AM on Wednesday 26 Nov 2014 (Local Time) from KSGF Reporting Station
Few Clouds Few Clouds  
Wind Chill: 36°   Ceiling: Unl
Heat Index: 43°   Visibility: 10mi
Dew Point: 35°   Wind: 13mph
Humidity: 74%   Direction: 280°W
Pressure: 29.99"   Gusts: NA
Location:  37.44°N, 93.03°W
Report Text: KSGF 261652Z 28011KT 10SM FEW020 06/02 A2999 RMK AO2 SLP163 T00610017
Loading
Personal Weather Stations






























Interactive Weather Map New forecast layout! Learn more

10-Day Weather Forecast

Advertisements
Track Severe Weather on mobile